Date,TemperatureHighF,TemperatureAvgF,TemperatureLowF,DewpointHighF,DewpointAvgF,DewpointLowF,HumidityHigh,HumidityAvg,HumidityLow,PressureMaxIn,PressureMinIn,WindSpeedMaxMPH,WindSpeedAvgMPH,GustSpeedMaxMPH,PrecipitationSumIn
2013-3-1,49,38,23,37,30,23,99,77,57,28.80,28.73,8,2,8,0.00
2013-3-2,54,37,26,43,34,23,99,89,63,28.81,28.69,10,1,10,0.06
2013-3-3,51,33,18,35,22,17,99,68,35,28.87,28.75,13,3,13,0.06
2013-3-4,63,38,18,31,23,16,95,62,21,29.00,28.86,12,2,12,0.00
2013-3-5,50,42,33,50,40,28,99,92,72,28.93,28.50,12,1,12,0.53
2013-3-6,50,39,26,41,30,25,99,72,50,28.99,28.50,23,6,23,0.10
2013-3-7,62,39,22,38,30,22,99,72,38,29.15,28.97,10,2,10,0.00
2013-3-8,64,40,22,39,27,21,99,66,27,29.19,29.07,15,3,15,0.00
2013-3-9,70,45,24,42,34,24,99,70,34,29.22,29.10,8,2,8,0.00
2013-3-10,72,50,32,48,40,32,99,71,33,29.16,29.03,10,2,10,0.00
2013-3-11,72,54,39,58,49,39,99,84,57,29.06,28.73,16,3,16,0.09
2013-3-12,73,59,39,62,49,-3,99,75,5,29.48,28.61,13,4,13,0.28
2013-3-13,59,43,28,43,29,19,99,63,30,29.03,28.87,17,5,17,0.00
2013-3-14,57,39,25,26,21,17,80,52,24,29.16,29.01,13,3,13,0.00
2013-3-15,72,46,24,46,34,22,99,68,39,29.06,28.78,13,2,13,0.00
2013-3-16,83,63,43,59,51,42,99,68,43,28.78,28.59,16,4,16,0.00
2013-3-17,80,60,45,61,51,44,99,75,49,28.96,28.73,15,4,15,0.00
2013-3-18,41,40,39,41,40,39,99,99,99,29.00,28.73,8,2,8,0.47
2013-3-19,71,57,40,54,31,20,97,39,27,28.94,28.80,14,4,14,0.01
2013-3-20,63,49,41,35,21,12,66,33,20,28.99,28.67,15,4,15,0.00
2013-3-21,51,39,26,30,16,6,65,40,26,28.84,28.68,15,5,15,0.00
2013-3-22,58,37,19,33,21,14,85,57,27,28.95,28.83,11,2,11,0.00
2013-3-23,61,44,35,49,40,31,99,87,61,28.92,28.76,8,1,8,0.04
2013-3-24,43,41,37,42,41,37,99,99,99,28.80,28.43,15,4,15,0.96
2013-3-25,49,42,34,40,28,23,99,59,41,28.77,28.46,26,8,26,0.06
2013-3-26,48,38,23,38,28,23,99,70,50,29.06,28.76,20,3,20,0.00
2013-3-27,56,39,22,37,26,22,99,64,36,29.12,29.04,15,3,15,0.00
2013-3-28,63,41,22,38,27,22,99,63,26,29.18,29.05,14,2,14,0.00
2013-3-29,68,48,26,42,33,25,98,63,29,29.18,29.05,13,2,13,0.00
2013-3-30,69,53,44,52,47,42,99,83,49,29.10,28.92,9,2,9,0.09
2013-3-31,75,57,39,66,55,26,99,93,59,28.92,28.68,14,3,14,0.31